Time;durP1;ratioP1;P1;durP2;ratioP2;P2;SDS_P1;SDS_P2;PMS_P1;PMS_P2;Temp;Humidity;BMP_temperature;BMP_pressure;BME280_temperature;BME280_humidity;BME280_pressure;Samples;Min_cycle;Max_cycle;Signal;HPM_P1;HPM_P2
2021/03/10 00:02:12;;;;;;;0.90;0.90;;;1.00;99.90;;;;;;4429518;32;20074;-74
2021/03/10 00:04:37;;;;;;;3.70;2.00;;;1.00;99.90;;;;;;4429241;32;20127;-75
2021/03/10 00:07:03;;;;;;;0.77;0.77;;;1.00;99.90;;;;;;4428861;32;20061;-74
2021/03/10 00:09:28;;;;;;;0.70;0.70;;;1.10;99.90;;;;;;4420637;32;20074;-75
2021/03/10 00:11:54;;;;;;;1.37;1.20;;;1.20;99.90;;;;;;4413612;32;20116;-75
2021/03/10 00:14:19;;;;;;;0.68;0.60;;;1.00;99.90;;;;;;4413583;32;20061;-74
2021/03/10 00:16:45;;;;;;;0.70;0.70;;;0.90;99.90;;;;;;4413397;32;20082;-75
2021/03/10 00:19:11;;;;;;;0.68;0.68;;;0.90;99.90;;;;;;4414341;32;20070;-75
2021/03/10 00:21:36;;;;;;;0.98;0.93;;;0.90;99.90;;;;;;4413338;32;20083;-74
2021/03/10 00:24:02;;;;;;;0.60;0.60;;;0.80;99.90;;;;;;4414739;32;20112;-76
2021/03/10 00:26:27;;;;;;;0.73;0.73;;;0.90;99.90;;;;;;4414651;32;20095;-76
2021/03/10 00:28:53;;;;;;;0.62;0.62;;;0.90;99.90;;;;;;4413216;32;20117;-75
2021/03/10 00:31:18;;;;;;;0.85;0.85;;;0.90;99.90;;;;;;4413409;32;20070;-75
2021/03/10 00:33:44;;;;;;;3.45;1.65;;;0.90;99.90;;;;;;4413902;32;20550;-76
2021/03/10 00:36:09;;;;;;;1.80;1.23;;;0.90;99.90;;;;;;4414270;32;20433;-76
2021/03/10 00:38:35;;;;;;;1.00;1.00;;;1.00;99.90;;;;;;4414281;32;20081;-75
2021/03/10 00:41:00;;;;;;;0.50;0.50;;;1.00;99.90;;;;;;4413197;32;20070;-76
2021/03/10 00:43:26;;;;;;;0.98;0.90;;;0.80;99.90;;;;;;4413790;32;20065;-75
2021/03/10 00:45:51;;;;;;;0.30;0.30;;;0.80;99.90;;;;;;4412907;32;20477;-75
2021/03/10 00:48:18;;;;;;;0.52;0.52;;;0.70;99.90;;;;;;4413642;32;20073;-75
2021/03/10 00:50:44;;;;;;;1.17;1.00;;;0.70;99.90;;;;;;4414662;32;20129;-75
2021/03/10 00:53:09;;;;;;;3.62;1.75;;;0.60;99.90;;;;;;4412952;32;20066;-75
2021/03/10 00:55:35;;;;;;;0.73;0.73;;;0.60;99.90;;;;;;4412891;32;20073;-75
2021/03/10 00:58:00;;;;;;;0.55;0.55;;;0.70;99.90;;;;;;4412712;32;20418;-75
2021/03/10 01:00:26;;;;;;;1.20;1.02;;;0.70;99.90;;;;;;4413722;32;20061;-75
2021/03/10 01:02:52;;;;;;;0.40;0.40;;;0.70;99.90;;;;;;4414615;32;20070;-75
2021/03/10 01:05:17;;;;;;;0.40;0.40;;;0.60;99.90;;;;;;4413358;32;20067;-75
2021/03/10 01:07:42;;;;;;;0.50;0.50;;;0.80;99.90;;;;;;4413810;32;20078;-75
2021/03/10 01:10:10;;;;;;;0.60;0.60;;;0.80;99.90;;;;;;4428601;32;20086;-75
2021/03/10 01:12:36;;;;;;;1.65;0.85;;;0.80;99.90;;;;;;4430556;32;20074;-75
2021/03/10 01:15:07;;;;;;;1.23;1.12;;;0.80;99.90;;;;;;4431370;32;20065;-75
2021/03/10 01:17:32;;;;;;;0.52;0.52;;;0.80;99.90;;;;;;4431162;32;20061;-75
2021/03/10 01:19:58;;;;;;;0.80;0.80;;;0.80;99.90;;;;;;4431056;32;20403;-75
2021/03/10 01:22:24;;;;;;;0.55;0.55;;;0.70;99.90;;;;;;4432065;32;20070;-75
2021/03/10 01:24:49;;;;;;;0.50;0.50;;;0.80;99.90;;;;;;4431040;32;20583;-75
2021/03/10 01:27:17;;;;;;;1.42;1.33;;;0.80;99.90;;;;;;4431015;32;20085;-75
2021/03/10 01:29:44;;;;;;;1.20;1.12;;;0.80;99.90;;;;;;4430518;32;20065;-75
2021/03/10 01:32:09;;;;;;;0.50;0.50;;;0.80;99.90;;;;;;4430723;32;20077;-75
2021/03/10 01:34:35;;;;;;;0.88;0.68;;;0.80;99.90;;;;;;4430834;32;20126;-75
2021/03/10 01:37:00;;;;;;;0.88;0.73;;;0.80;99.90;;;;;;4430689;32;20502;-75
2021/03/10 01:39:26;;;;;;;0.50;0.50;;;0.80;99.90;;;;;;4430281;32;20467;-75
2021/03/10 01:41:51;;;;;;;0.40;0.40;;;0.80;99.90;;;;;;4430568;32;20078;-75
2021/03/10 01:44:17;;;;;;;0.70;0.70;;;0.80;99.90;;;;;;4430421;32;20526;-75
2021/03/10 01:46:43;;;;;;;2.20;1.02;;;0.80;99.90;;;;;;4431137;32;20074;-75
2021/03/10 01:49:09;;;;;;;4.57;1.02;;;0.70;99.90;;;;;;4431039;32;20061;-75
2021/03/10 01:51:35;;;;;;;0.60;0.60;;;0.60;99.90;;;;;;4430765;32;20081;-75
2021/03/10 01:54:01;;;;;;;0.73;0.73;;;0.60;99.90;;;;;;4430886;32;20061;-75
2021/03/10 01:56:27;;;;;;;0.75;0.75;;;0.50;99.90;;;;;;4430433;32;20120;-75
2021/03/10 01:58:54;;;;;;;2.87;0.85;;;0.40;99.90;;;;;;4430309;32;20534;-75
2021/03/10 02:01:20;;;;;;;1.67;1.52;;;0.50;99.90;;;;;;4430436;32;20141;-75
2021/03/10 02:03:45;;;;;;;2.33;1.62;;;0.50;99.90;;;;;;4429819;32;20065;-75
2021/03/10 02:06:20;;;;;;;9.70;1.17;;;0.50;99.90;;;;;;4429996;32;20445;-75
2021/03/10 02:08:54;;;;;;;0.50;0.50;;;0.60;99.90;;;;;;4425655;32;20078;-74
2021/03/10 02:11:33;;;;;;;0.50;0.50;;;0.50;99.90;;;;;;4414379;32;20074;-75
2021/03/10 02:14:38;;;;;;;2.15;1.30;;;0.50;99.90;;;;;;4415084;32;20069;-74
2021/03/10 02:17:07;;;;;;;1.00;0.93;;;0.50;99.90;;;;;;4414458;32;20069;-75
2021/03/10 02:19:50;;;;;;;0.50;0.50;;;0.50;99.90;;;;;;4414546;32;20061;-74
2021/03/10 02:22:56;;;;;;;0.95;0.95;;;0.50;99.90;;;;;;4414528;32;20125;-74
2021/03/10 02:25:32;;;;;;;0.65;0.65;;;0.50;99.90;;;;;;4413674;32;20082;-74
2021/03/10 02:28:00;;;;;;;1.33;1.15;;;0.50;99.90;;;;;;4414510;32;20078;-75
2021/03/10 02:30:31;;;;;;;1.20;0.77;;;0.60;99.90;;;;;;4414800;32;20752;-75
2021/03/10 02:32:59;;;;;;;1.05;1.02;;;0.60;99.90;;;;;;4414552;32;20062;-75
2021/03/10 02:35:26;;;;;;;0.75;0.75;;;0.50;99.90;;;;;;4415033;32;20393;-75
2021/03/10 02:37:56;;;;;;;0.57;0.57;;;0.40;99.90;;;;;;4414491;32;20082;-75
2021/03/10 02:40:23;;;;;;;0.65;0.65;;;0.50;99.90;;;;;;4415416;32;20073;-75
2021/03/10 02:42:50;;;;;;;3.30;1.05;;;0.40;99.90;;;;;;4415172;32;20066;-75
2021/03/10 02:45:16;;;;;;;4.68;1.30;;;0.50;99.90;;;;;;4414280;32;20070;-75
2021/03/10 02:47:42;;;;;;;0.60;0.60;;;0.40;99.90;;;;;;4414773;32;20070;-75
2021/03/10 02:50:09;;;;;;;0.65;0.65;;;0.30;99.90;;;;;;4414829;32;20061;-75
2021/03/10 02:52:35;;;;;;;1.02;0.95;;;0.40;99.90;;;;;;4414427;32;20070;-75
2021/03/10 02:55:01;;;;;;;3.33;1.27;;;0.40;99.90;;;;;;4415109;32;20066;-75
2021/03/10 02:57:27;;;;;;;0.57;0.57;;;0.40;99.90;;;;;;4414600;32;20077;-75
2021/03/10 02:59:53;;;;;;;0.60;0.60;;;0.40;99.90;;;;;;4413484;32;20082;-75
2021/03/10 03:02:19;;;;;;;1.17;1.08;;;0.30;99.90;;;;;;4414547;32;20082;-75
2021/03/10 03:04:44;;;;;;;0.40;0.40;;;0.30;99.90;;;;;;4414204;32;20065;-75
2021/03/10 03:07:10;;;;;;;0.62;0.62;;;0.30;99.90;;;;;;4414501;32;20070;-75
2021/03/10 03:09:36;;;;;;;0.50;0.50;;;0.30;99.90;;;;;;4423982;32;20408;-75
2021/03/10 03:12:04;;;;;;;1.33;1.02;;;0.30;99.90;;;;;;4429777;32;20082;-75
2021/03/10 03:14:32;;;;;;;1.12;1.02;;;0.30;99.90;;;;;;4430101;32;20163;-75
2021/03/10 03:16:59;;;;;;;1.83;1.37;;;0.30;99.90;;;;;;4429346;32;20069;-75
2021/03/10 03:19:24;;;;;;;0.50;0.50;;;0.30;99.90;;;;;;4429529;32;20529;-75
2021/03/10 03:21:52;;;;;;;0.82;0.82;;;0.20;99.90;;;;;;4428804;32;20081;-75
2021/03/10 03:24:18;;;;;;;0.40;0.40;;;0.20;99.90;;;;;;4429316;32;20556;-75
2021/03/10 03:26:45;;;;;;;1.08;1.08;;;0.20;99.90;;;;;;4429576;32;20120;-75
2021/03/10 03:29:12;;;;;;;1.85;1.23;;;0.30;99.90;;;;;;4428862;32;20082;-75
2021/03/10 03:31:39;;;;;;;3.45;1.73;;;0.30;99.90;;;;;;4429259;32;20424;-75
2021/03/10 03:34:05;;;;;;;0.60;0.60;;;0.30;99.90;;;;;;4429258;32;20081;-75
2021/03/10 03:36:31;;;;;;;0.47;0.47;;;0.30;99.90;;;;;;4429325;32;20416;-75
2021/03/10 03:38:59;;;;;;;0.60;0.60;;;0.20;99.90;;;;;;4428967;32;20209;-75
2021/03/10 03:41:25;;;;;;;1.98;1.52;;;0.20;99.90;;;;;;4428828;32;20077;-76
2021/03/10 03:43:50;;;;;;;1.10;0.60;;;0.20;99.90;;;;;;4430693;32;20123;-75
2021/03/10 03:46:16;;;;;;;3.60;2.05;;;0.10;99.90;;;;;;4428847;32;20061;-76
2021/03/10 03:48:41;;;;;;;2.00;1.15;;;0.00;99.90;;;;;;4428876;32;20605;-76
2021/03/10 03:51:32;;;;;;;0.98;0.98;;;0.10;99.90;;;;;;4429298;32;20066;-76
2021/03/10 03:54:03;;;;;;;1.85;1.33;;;0.00;99.90;;;;;;4429356;32;20128;-76
2021/03/10 03:56:29;;;;;;;0.70;0.70;;;0.00;99.90;;;;;;4428994;32;20064;-76
2021/03/10 03:58:56;;;;;;;0.77;0.77;;;0.10;99.90;;;;;;4429652;32;20526;-76
2021/03/10 04:01:22;;;;;;;0.65;0.65;;;0.00;99.90;;;;;;4428858;32;20069;-76
2021/03/10 04:03:48;;;;;;;0.65;0.65;;;0.10;99.90;;;;;;4430178;32;20069;-75
2021/03/10 04:06:14;;;;;;;1.62;1.52;;;0.00;99.90;;;;;;4428770;32;20064;-76
2021/03/10 04:08:41;;;;;;;1.70;1.27;;;-0.10;99.90;;;;;;4425444;32;20077;-76
2021/03/10 04:11:08;;;;;;;0.50;0.50;;;-0.10;99.90;;;;;;4412977;32;20065;-75
2021/03/10 04:13:34;;;;;;;1.30;0.90;;;-0.10;99.90;;;;;;4413323;32;20062;-75
2021/03/10 04:15:59;;;;;;;1.12;1.02;;;-0.20;99.90;;;;;;4413286;32;20399;-75
2021/03/10 04:18:25;;;;;;;0.75;0.73;;;-0.10;99.90;;;;;;4413477;32;20081;-76
2021/03/10 04:20:51;;;;;;;0.52;0.52;;;-0.10;99.90;;;;;;4413410;32;20512;-76
2021/03/10 04:23:16;;;;;;;0.40;0.40;;;-0.20;99.90;;;;;;4414164;32;20065;-75
2021/03/10 04:25:42;;;;;;;0.80;0.80;;;-0.20;99.90;;;;;;4413040;32;20062;-75
2021/03/10 04:28:08;;;;;;;0.85;0.85;;;-0.20;99.90;;;;;;4412995;32;20078;-75
2021/03/10 04:30:34;;;;;;;0.37;0.37;;;-0.10;99.90;;;;;;4414447;32;20418;-76
2021/03/10 04:32:59;;;;;;;10.93;1.90;;;-0.20;99.90;;;;;;4413113;32;20083;-76
2021/03/10 04:35:25;;;;;;;1.95;1.17;;;-0.20;99.90;;;;;;4413465;32;20439;-76
2021/03/10 04:37:50;;;;;;;1.25;1.17;;;-0.20;99.90;;;;;;4413404;32;20078;-76
2021/03/10 04:40:17;;;;;;;0.80;0.80;;;-0.30;99.90;;;;;;4412279;32;20070;-76
2021/03/10 04:42:43;;;;;;;0.60;0.60;;;-0.30;99.90;;;;;;4413937;32;20077;-76
2021/03/10 04:45:10;;;;;;;0.85;0.80;;;-0.30;99.90;;;;;;4416173;32;20061;-76
2021/03/10 04:47:36;;;;;;;0.50;0.50;;;-0.30;99.90;;;;;;4416888;32;20742;-75
2021/03/10 04:50:03;;;;;;;0.50;0.50;;;-0.30;99.90;;;;;;4416204;32;20066;-76
2021/03/10 04:52:28;;;;;;;0.68;0.68;;;-0.40;99.90;;;;;;4416151;32;20507;-75
2021/03/10 04:54:54;;;;;;;3.62;1.17;;;-0.40;99.90;;;;;;4416183;32;20144;-75
2021/03/10 04:57:19;;;;;;;0.55;0.55;;;-0.30;99.90;;;;;;4415939;32;20094;-75
2021/03/10 04:59:45;;;;;;;0.60;0.60;;;-0.40;99.90;;;;;;4415282;32;20528;-76
2021/03/10 05:02:10;;;;;;;0.95;0.95;;;-0.40;99.90;;;;;;4415679;32;20121;-76
2021/03/10 05:04:36;;;;;;;0.40;0.40;;;-0.40;99.90;;;;;;4416109;32;20066;-76
2021/03/10 05:07:03;;;;;;;0.88;0.88;;;-0.30;99.90;;;;;;4415819;32;20065;-76
2021/03/10 05:09:28;;;;;;;1.02;1.02;;;-0.30;99.90;;;;;;4423929;32;20062;-76
2021/03/10 05:11:54;;;;;;;2.08;1.30;;;-0.30;99.90;;;;;;4430644;32;20069;-75
2021/03/10 05:14:19;;;;;;;2.45;1.12;;;-0.30;99.90;;;;;;4431137;32;20069;-75
2021/03/10 05:16:45;;;;;;;0.65;0.65;;;-0.30;99.90;;;;;;4431661;32;20562;-76
2021/03/10 05:19:10;;;;;;;0.75;0.75;;;-0.40;99.90;;;;;;4431024;32;20069;-76
2021/03/10 05:21:36;;;;;;;4.47;2.67;;;-0.50;99.90;;;;;;4430751;32;20360;-75
2021/03/10 05:24:01;;;;;;;4.05;1.65;;;-0.50;99.90;;;;;;4430862;32;20120;-76
2021/03/10 05:26:27;;;;;;;0.85;0.82;;;-0.60;99.90;;;;;;4430533;32;20451;-76
2021/03/10 05:28:52;;;;;;;2.30;1.33;;;-0.60;99.90;;;;;;4430266;32;20061;-76
2021/03/10 05:31:18;;;;;;;1.27;1.17;;;-0.70;99.90;;;;;;4431212;32;20514;-75
2021/03/10 05:33:43;;;;;;;1.05;1.05;;;-0.70;99.90;;;;;;4431890;32;20577;-75
2021/03/10 05:36:09;;;;;;;0.95;0.75;;;-0.70;99.90;;;;;;4431545;32;20065;-75
2021/03/10 05:38:35;;;;;;;4.95;1.80;;;-0.70;99.90;;;;;;4432043;32;20518;-75
2021/03/10 05:41:00;;;;;;;0.60;0.60;;;-0.80;99.90;;;;;;4430344;32;20081;-76
2021/03/10 05:43:26;;;;;;;4.30;2.03;;;-0.80;99.90;;;;;;4431035;32;20113;-75
2021/03/10 05:45:52;;;;;;;0.50;0.50;;;-0.70;99.90;;;;;;4430974;32;20094;-76
2021/03/10 05:48:17;;;;;;;0.88;0.85;;;-0.60;99.90;;;;;;4430966;32;20074;-76
2021/03/10 05:50:43;;;;;;;0.43;0.43;;;-0.50;99.90;;;;;;4430624;32;20069;-76
2021/03/10 05:53:12;;;;;;;1.80;1.20;;;-0.50;99.90;;;;;;4430242;32;20080;-76
2021/03/10 05:55:39;;;;;;;0.50;0.50;;;-0.50;99.90;;;;;;4430252;32;20116;-75
2021/03/10 05:58:10;;;;;;;6.28;1.52;;;-0.50;99.90;;;;;;4431303;32;20074;-76
2021/03/10 06:00:35;;;;;;;0.40;0.40;;;-0.50;99.90;;;;;;4430833;32;20125;-75
2021/03/10 06:03:01;;;;;;;1.77;1.42;;;-0.50;99.90;;;;;;4423543;32;20065;-76
2021/03/10 06:05:27;;;;;;;0.55;0.55;;;-0.50;99.90;;;;;;4414830;32;20381;-76
2021/03/10 06:08:01;;;;;;;9.55;2.50;;;-0.60;99.90;;;;;;4415101;32;20066;-76
2021/03/10 06:10:47;;;;;;;0.50;0.50;;;-0.60;99.90;;;;;;4415650;32;20581;-76
2021/03/10 06:13:22;;;;;;;0.30;0.30;;;-0.50;99.90;;;;;;4415989;32;20075;-76
2021/03/10 06:15:50;;;;;;;2.33;0.93;;;-0.40;99.90;;;;;;4409224;32;20455;-76
2021/03/10 06:18:35;;;;;;;1.98;1.62;;;-0.40;99.90;;;;;;4415090;32;20061;-76
2021/03/10 06:21:04;;;;;;;1.42;1.15;;;-0.30;99.90;;;;;;4413816;32;20086;-74
2021/03/10 06:23:30;;;;;;;10.75;2.05;;;-0.30;99.90;;;;;;4414365;32;20113;-75
2021/03/10 06:25:56;;;;;;;0.70;0.70;;;-0.20;99.90;;;;;;4416368;32;20073;-74
2021/03/10 06:28:24;;;;;;;1.00;1.00;;;-0.20;99.90;;;;;;4414068;32;20078;-75
2021/03/10 06:30:49;;;;;;;1.40;1.10;;;-0.20;99.90;;;;;;4414636;32;20129;-74
2021/03/10 06:33:23;;;;;;;0.70;0.70;;;-0.20;99.90;;;;;;4414367;32;20086;-75
2021/03/10 06:35:49;;;;;;;1.75;1.65;;;-0.20;99.90;;;;;;4414410;32;20065;-75
2021/03/10 06:38:17;;;;;;;5.03;1.67;;;-0.10;99.90;;;;;;4414656;32;20066;-75
2021/03/10 06:40:48;;;;;;;1.23;0.68;;;-0.10;99.90;;;;;;4414153;32;20066;-74
2021/03/10 06:43:13;;;;;;;0.50;0.50;;;0.00;99.90;;;;;;4415345;32;20078;-74
2021/03/10 06:45:39;;;;;;;0.55;0.55;;;0.10;99.90;;;;;;4414653;32;20388;-75
2021/03/10 06:48:16;;;;;;;0.80;0.80;;;0.10;99.90;;;;;;4414714;32;20065;-74
2021/03/10 06:50:41;;;;;;;0.40;0.40;;;0.20;99.90;;;;;;4413910;32;20124;-75
2021/03/10 06:53:07;;;;;;;0.40;0.40;;;0.30;99.90;;;;;;4414945;32;20073;-75
2021/03/10 06:55:37;;;;;;;0.52;0.52;;;0.30;99.90;;;;;;4414642;32;20065;-74
2021/03/10 06:58:02;;;;;;;1.60;1.27;;;0.40;99.90;;;;;;4413501;32;20523;-75
2021/03/10 07:00:28;;;;;;;2.17;1.80;;;0.40;99.90;;;;;;4414597;32;20089;-75
2021/03/10 07:02:54;;;;;;;1.55;0.75;;;0.40;99.90;;;;;;4414531;32;20467;-75
2021/03/10 07:05:21;;;;;;;1.85;1.37;;;0.50;99.90;;;;;;4413701;32;20069;-75
2021/03/10 07:07:47;;;;;;;0.65;0.65;;;0.50;99.90;;;;;;4414418;32;20074;-75
2021/03/10 07:10:13;;;;;;;2.22;1.73;;;0.60;99.90;;;;;;4413806;32;20507;-75
2021/03/10 07:12:39;;;;;;;20.62;1.60;;;0.70;99.90;;;;;;4414282;32;20069;-75
2021/03/10 07:15:05;;;;;;;1.55;1.33;;;0.90;99.90;;;;;;4414300;32;20127;-75
2021/03/10 07:17:31;;;;;;;0.77;0.77;;;1.00;99.90;;;;;;4414519;32;20078;-75
2021/03/10 07:19:57;;;;;;;1.45;1.00;;;1.10;99.90;;;;;;4414484;32;20065;-74
2021/03/10 07:22:45;;;;;;;0.50;0.50;;;1.20;99.90;;;;;;4415954;32;20120;-75
2021/03/10 07:25:14;;;;;;;5.35;2.05;;;1.30;99.90;;;;;;4409731;32;20070;-75
2021/03/10 07:27:45;;;;;;;0.70;0.70;;;1.40;99.90;;;;;;4415066;32;20082;-75
2021/03/10 07:30:11;;;;;;;2.28;1.40;;;1.40;99.90;;;;;;4414468;32;20069;-76
2021/03/10 07:32:37;;;;;;;2.53;1.33;;;1.50;99.90;;;;;;4414642;32;20125;-75
2021/03/10 07:35:09;;;;;;;1.05;1.05;;;1.50;99.90;;;;;;4410997;32;20078;-75
2021/03/10 07:37:35;;;;;;;1.33;1.15;;;1.60;99.90;;;;;;4413601;32;20495;-75
2021/03/10 07:40:16;;;;;;;4.07;1.77;;;1.70;99.90;;;;;;4413394;32;20124;-75
2021/03/10 07:42:52;;;;;;;0.47;0.47;;;1.80;99.90;;;;;;4413649;32;20066;-75
2021/03/10 07:45:19;;;;;;;2.95;1.33;;;2.00;99.90;;;;;;4413971;32;20116;-75
2021/03/10 07:47:49;;;;;;;2.58;1.58;;;2.00;99.90;;;;;;4413585;32;20058;-75
2021/03/10 07:50:15;;;;;;;1.15;0.88;;;2.10;99.90;;;;;;4414158;32;20073;-75
2021/03/10 07:52:50;;;;;;;1.87;1.52;;;2.20;99.90;;;;;;4413162;32;20124;-75
2021/03/10 07:55:16;;;;;;;1.00;1.00;;;2.40;99.90;;;;;;4412238;32;20073;-75
2021/03/10 07:57:52;;;;;;;0.80;0.80;;;2.60;99.90;;;;;;4413061;32;20120;-75
2021/03/10 08:00:18;;;;;;;2.55;1.20;;;2.80;99.90;;;;;;4413919;32;20070;-76
2021/03/10 08:02:47;;;;;;;2.75;1.58;;;2.90;99.90;;;;;;4413975;32;20069;-75
2021/03/10 08:05:28;;;;;;;2.05;1.73;;;2.90;99.90;;;;;;4411523;32;20511;-74
2021/03/10 08:08:11;;;;;;;9.13;1.52;;;3.10;99.90;;;;;;4420239;32;20109;-75
2021/03/10 08:10:38;;;;;;;0.98;0.98;;;3.20;99.90;;;;;;4406628;32;20086;-75
2021/03/10 08:13:24;;;;;;;2.42;2.15;;;3.30;99.90;;;;;;4413329;32;20522;-76
2021/03/10 08:16:01;;;;;;;1.02;0.73;;;3.30;99.50;;;;;;4412061;32;20557;-75
2021/03/10 08:18:27;;;;;;;0.90;0.90;;;3.40;99.20;;;;;;4412601;32;20089;-76
2021/03/10 08:20:54;;;;;;;0.62;0.62;;;3.50;98.70;;;;;;4413118;32;20793;-75
2021/03/10 08:23:20;;;;;;;1.23;1.12;;;3.70;97.40;;;;;;4413011;32;20082;-75
2021/03/10 08:25:50;;;;;;;1.02;1.02;;;3.80;97.10;;;;;;4413092;32;20074;-75
2021/03/10 08:28:16;;;;;;;;;;;4.00;97.10;;;;;;4412647;32;20086;-74
2021/03/10 08:30:43;;;;;;;0.68;0.68;;;4.20;96.10;;;;;;4414190;32;20343;-73
2021/03/10 08:33:12;;;;;;;1.00;0.75;;;4.20;96.00;;;;;;4411059;32;20166;-75
2021/03/10 08:35:46;;;;;;;1.23;1.15;;;4.40;96.40;;;;;;4411222;32;20062;-75
2021/03/10 08:38:11;;;;;;;2.15;1.48;;;4.50;94.90;;;;;;4413409;32;20138;-75
2021/03/10 08:40:37;;;;;;;2.05;1.55;;;4.70;94.10;;;;;;4412170;32;20070;-76
2021/03/10 08:43:03;;;;;;;1.42;1.33;;;4.80;94.10;;;;;;4412927;32;20053;-76
2021/03/10 08:45:32;;;;;;;2.85;1.05;;;4.70;93.60;;;;;;4412634;32;20425;-75
2021/03/10 08:48:00;;;;;;;3.45;1.27;;;4.70;93.60;;;;;;4412220;32;20487;-74
2021/03/10 08:50:32;;;;;;;1.17;1.08;;;4.90;92.40;;;;;;4412289;32;20091;-75
2021/03/10 08:52:57;;;;;;;1.35;1.20;;;5.00;92.00;;;;;;4413234;32;20057;-75
2021/03/10 08:55:25;;;;;;;4.32;1.92;;;5.20;92.00;;;;;;4412158;32;20065;-75
2021/03/10 08:57:53;;;;;;;0.73;0.73;;;5.30;91.10;;;;;;4410789;32;20065;-75
2021/03/10 09:00:21;;;;;;;32.60;1.48;;;5.50;91.40;;;;;;4412337;32;20094;-75
2021/03/10 09:02:49;;;;;;;0.70;0.70;;;5.60;89.40;;;;;;4411928;32;20057;-75
2021/03/10 09:05:17;;;;;;;31.87;5.30;;;5.60;89.40;;;;;;4413082;32;20062;-75
2021/03/10 09:07:46;;;;;;;1.12;1.05;;;5.60;87.70;;;;;;4414135;32;20074;-75
2021/03/10 09:10:14;;;;;;;1.05;0.90;;;5.80;86.00;;;;;;4425005;32;20121;-75
2021/03/10 09:12:42;;;;;;;1.90;0.85;;;5.90;85.30;;;;;;4416399;32;20202;-75
2021/03/10 09:15:19;;;;;;;3.05;1.10;;;5.80;85.30;;;;;;4412846;32;20413;-75
2021/03/10 09:17:45;;;;;;;0.80;0.68;;;6.00;86.40;;;;;;4413067;32;20073;-75
2021/03/10 09:20:21;;;;;;;3.28;1.40;;;6.00;86.00;;;;;;4421609;32;20431;-74
2021/03/10 09:22:47;;;;;;;0.80;0.75;;;6.20;84.60;;;;;;4410520;32;20074;-76
2021/03/10 09:25:15;;;;;;;1.17;1.12;;;6.30;84.20;;;;;;4411734;32;20128;-74
2021/03/10 09:27:41;;;;;;;12.77;1.62;;;6.50;85.50;;;;;;4414991;32;20074;-75
2021/03/10 09:30:32;;;;;;;3.60;1.35;;;6.80;84.90;;;;;;4415542;32;20066;-78
2021/03/10 09:32:58;;;;;;;4.43;2.97;;;7.00;82.10;;;;;;4415421;32;20140;-75
2021/03/10 09:35:30;;;;;;;0.60;0.60;;;7.00;77.70;;;;;;4415060;32;20062;-76
2021/03/10 09:37:58;;;;;;;0.82;0.80;;;6.80;77.10;;;;;;4415093;32;20086;-76
2021/03/10 09:40:36;;;;;;;1.30;1.20;;;6.80;76.70;;;;;;4413995;32;20070;-75
2021/03/10 09:43:05;;;;;;;1.27;0.80;;;7.00;76.00;;;;;;4414747;32;20061;-75
2021/03/10 09:45:32;;;;;;;1.70;1.42;;;7.20;73.90;;;;;;4414814;32;20121;-75
2021/03/10 09:47:58;;;;;;;3.10;1.95;;;7.30;75.00;;;;;;4417212;32;20109;-76
2021/03/10 09:50:25;;;;;;;0.60;0.60;;;7.40;73.30;;;;;;4414409;32;20086;-76
2021/03/10 09:52:51;;;;;;;0.77;0.77;;;7.50;72.30;;;;;;4410367;32;20421;-75
2021/03/10 09:55:20;;;;;;;0.70;0.70;;;7.60;69.90;;;;;;4423222;32;20066;-75
2021/03/10 09:57:45;;;;;;;0.98;0.90;;;7.70;68.90;;;;;;4424436;32;20081;-75
2021/03/10 10:00:19;;;;;;;0.95;0.95;;;8.00;70.00;;;;;;4414879;32;20086;-75
2021/03/10 10:02:46;;;;;;;1.45;1.08;;;8.10;67.20;;;;;;4415105;32;20070;-75
2021/03/10 10:05:25;;;;;;;4.07;2.17;;;8.10;68.60;;;;;;4415170;32;20136;-75
2021/03/10 10:07:51;;;;;;;0.90;0.90;;;7.90;65.60;;;;;;4415449;32;20405;-75
2021/03/10 10:10:17;;;;;;;2.55;1.10;;;7.80;65.10;;;;;;4426637;32;20490;-75
2021/03/10 10:12:47;;;;;;;1.35;0.88;;;7.80;62.70;;;;;;4421839;32;20215;-76
2021/03/10 10:15:15;;;;;;;3.62;2.00;;;7.90;65.30;;;;;;4415253;32;20087;-76
2021/03/10 10:17:44;;;;;;;2.28;1.52;;;7.90;66.50;;;;;;4414816;32;20069;-76
2021/03/10 10:20:11;;;;;;;0.90;0.60;;;8.30;63.30;;;;;;4415606;32;20113;-75
2021/03/10 10:22:36;;;;;;;0.85;0.85;;;8.20;59.70;;;;;;4413997;32;20539;-76
2021/03/10 10:25:03;;;;;;;1.15;0.75;;;8.10;61.20;;;;;;4422644;32;20062;-76
2021/03/10 10:27:29;;;;;;;24.33;1.27;;;8.20;62.00;;;;;;4426351;32;20065;-76
2021/03/10 10:29:55;;;;;;;0.73;0.73;;;8.10;60.90;;;;;;4413766;32;20077;-77
2021/03/10 10:32:20;;;;;;;2.47;1.35;;;8.20;60.50;;;;;;4414494;32;20075;-76
2021/03/10 10:34:46;;;;;;;0.70;0.70;;;8.40;55.90;;;;;;4411332;32;20078;-76
2021/03/10 10:37:11;;;;;;;0.93;0.85;;;8.50;55.30;;;;;;4408479;32;20070;-75
2021/03/10 10:39:37;;;;;;;0.90;0.90;;;8.20;55.90;;;;;;4409221;32;20082;-76
2021/03/10 10:42:02;;;;;;;1.65;0.70;;;8.10;55.60;;;;;;4413291;32;20061;-75
2021/03/10 10:44:28;;;;;;;0.40;0.40;;;8.30;54.40;;;;;;4411514;32;83758;-76
2021/03/10 10:46:53;;;;;;;0.73;0.73;;;8.00;53.90;;;;;;4413280;32;20073;-75
2021/03/10 10:49:19;;;;;;;0.50;0.50;;;8.00;54.50;;;;;;4413955;32;20061;-75
2021/03/10 10:51:45;;;;;;;1.02;0.95;;;8.00;55.90;;;;;;4413904;32;20507;-75
2021/03/10 10:54:12;;;;;;;0.52;0.52;;;8.30;56.30;;;;;;4416098;32;20058;-75
2021/03/10 10:56:37;;;;;;;1.55;0.60;;;8.60;56.00;;;;;;4414864;32;20506;-75
2021/03/10 10:59:03;;;;;;;1.02;0.95;;;8.90;55.40;;;;;;4414400;32;20053;-75
2021/03/10 11:01:29;;;;;;;2.47;1.20;;;9.10;55.20;;;;;;4415025;32;20077;-75
2021/03/10 11:03:55;;;;;;;0.50;0.50;;;9.10;53.20;;;;;;4413651;32;20070;-75
2021/03/10 11:06:20;;;;;;;0.60;0.60;;;9.00;53.40;;;;;;4413896;32;20190;-75
2021/03/10 11:08:46;;;;;;;0.55;0.55;;;8.90;53.60;;;;;;4417655;32;20074;-75
2021/03/10 11:11:12;;;;;;;0.50;0.50;;;8.50;53.50;;;;;;4416859;32;20092;-75
2021/03/10 11:13:46;;;;;;;2.03;1.17;;;8.60;54.40;;;;;;4418523;32;20058;-76
2021/03/10 11:16:12;;;;;;;5.30;1.67;;;8.70;53.80;;;;;;4418239;32;20070;-75
2021/03/10 11:18:46;;;;;;;1.33;1.05;;;8.90;54.30;;;;;;4412990;32;20070;-75
2021/03/10 11:21:15;;;;;;;0.57;0.57;;;9.10;55.10;;;;;;4409177;32;20575;-76
2021/03/10 11:23:41;;;;;;;0.55;0.55;;;9.00;54.10;;;;;;4410040;32;20365;-75
2021/03/10 11:26:10;;;;;;;3.30;1.30;;;8.90;55.50;;;;;;4411736;32;20105;-76
2021/03/10 11:28:35;;;;;;;4.50;1.33;;;9.10;56.00;;;;;;4414487;32;20132;-75
2021/03/10 11:31:01;;;;;;;1.42;1.25;;;9.30;54.80;;;;;;4419815;32;20456;-75
2021/03/10 11:33:26;;;;;;;2.10;1.08;;;9.40;52.90;;;;;;4413089;32;20079;-75
2021/03/10 11:35:52;;;;;;;0.65;0.65;;;9.30;52.20;;;;;;4414499;32;20078;-75
2021/03/10 11:38:18;;;;;;;0.95;0.85;;;9.30;53.00;;;;;;4411788;32;20074;-75
2021/03/10 11:40:44;;;;;;;0.95;0.70;;;9.60;53.00;;;;;;4415805;32;20081;-76
2021/03/10 11:43:16;;;;;;;2.33;1.15;;;10.00;52.00;;;;;;4416987;32;20065;-77
2021/03/10 11:45:42;;;;;;;1.08;1.05;;;10.00;52.70;;;;;;4413356;32;20125;-76
2021/03/10 11:48:08;;;;;;;0.90;0.88;;;9.90;51.00;;;;;;4413686;32;20073;-77
2021/03/10 11:50:36;;;;;;;0.68;0.68;;;9.80;50.80;;;;;;4412639;32;20456;-76
2021/03/10 11:53:02;;;;;;;1.12;0.90;;;10.00;50.40;;;;;;4410957;32;20082;-76
2021/03/10 11:55:28;;;;;;;3.60;1.20;;;10.20;51.20;;;;;;4415808;32;20485;-76
2021/03/10 11:57:53;;;;;;;1.40;0.82;;;10.40;50.90;;;;;;4408018;32;20122;-76
2021/03/10 12:00:19;;;;;;;2.83;1.00;;;10.30;49.70;;;;;;4412353;32;20400;-76
2021/03/10 12:02:45;;;;;;;1.00;1.00;;;10.10;50.60;;;;;;4424025;32;20105;-76
2021/03/10 12:05:11;;;;;;;1.77;1.45;;;10.30;50.90;;;;;;4412180;32;20104;-76
2021/03/10 12:07:36;;;;;;;0.60;0.60;;;10.90;51.60;;;;;;4414106;32;20073;-76
2021/03/10 12:10:03;;;;;;;1.40;1.12;;;11.20;49.50;;;;;;4425228;32;20070;-75
2021/03/10 12:12:29;;;;;;;0.80;0.80;;;11.40;48.70;;;;;;4428705;32;20057;-78
2021/03/10 12:14:54;;;;;;;2.42;0.90;;;11.30;48.60;;;;;;4413071;32;20566;-76
2021/03/10 12:17:21;;;;;;;1.83;1.23;;;11.10;48.70;;;;;;4412843;32;20075;-76
2021/03/10 12:19:47;;;;;;;0.98;0.98;;;11.10;48.60;;;;;;4416403;32;20062;-77
2021/03/10 12:22:14;;;;;;;0.70;0.70;;;11.20;48.90;;;;;;4415525;32;20079;-76
2021/03/10 12:24:44;;;;;;;0.68;0.68;;;12.00;47.70;;;;;;4414780;32;20069;-77
2021/03/10 12:27:10;;;;;;;0.75;0.75;;;12.30;44.80;;;;;;4412804;32;20460;-76
2021/03/10 12:29:36;;;;;;;0.65;0.65;;;12.10;45.10;;;;;;4412532;32;20121;-76
2021/03/10 12:32:01;;;;;;;3.30;1.60;;;12.10;44.90;;;;;;4413470;32;20127;-76
2021/03/10 12:34:27;;;;;;;0.75;0.73;;;12.50;43.90;;;;;;4413083;32;20518;-76
2021/03/10 12:36:52;;;;;;;4.05;1.00;;;12.80;44.40;;;;;;4413089;32;20138;-77
2021/03/10 12:39:18;;;;;;;0.40;0.40;;;13.10;44.70;;;;;;4413242;32;20066;-76
2021/03/10 12:41:43;;;;;;;2.62;0.90;;;12.90;43.60;;;;;;4412639;32;20054;-76
2021/03/10 12:44:09;;;;;;;0.93;0.57;;;12.70;44.70;;;;;;4413901;32;20074;-76
2021/03/10 12:46:35;;;;;;;2.33;0.82;;;13.00;43.90;;;;;;4398361;32;20135;-76
2021/03/10 12:49:00;;;;;;;9.05;1.67;;;13.10;43.90;;;;;;4410141;32;20349;-76
2021/03/10 12:51:26;;;;;;;3.45;1.05;;;13.20;43.90;;;;;;4412920;32;20079;-76
2021/03/10 12:53:53;;;;;;;3.53;1.35;;;13.00;44.20;;;;;;4412627;32;20532;-76
2021/03/10 12:56:18;;;;;;;2.15;1.17;;;13.00;43.70;;;;;;4412611;32;20071;-77